createdAt,value
2023-04-16T06:56:25.727Z,8.99
2023-04-16T06:58:52.876Z,8.31
2023-04-16T07:01:20.034Z,8.26
2023-04-16T07:03:47.380Z,8.38
2023-04-16T07:06:14.874Z,8.92
2023-04-16T07:08:42.035Z,9.19
2023-04-16T07:11:09.236Z,8.86
2023-04-16T07:13:37.795Z,8.64
2023-04-16T07:16:05.517Z,8.68
2023-04-16T07:18:33.119Z,8.73
2023-04-16T07:21:00.399Z,8.80
2023-04-16T07:23:27.645Z,9.32
2023-04-16T07:25:54.858Z,9.36
2023-04-16T07:28:22.159Z,9.78
2023-04-16T07:30:50.863Z,9.68
2023-04-16T07:33:18.090Z,10.14
2023-04-16T07:35:45.395Z,10.32
2023-04-16T07:38:12.926Z,10.35
2023-04-16T07:40:40.096Z,10.43
2023-04-16T07:43:07.479Z,9.85
2023-04-16T07:45:34.646Z,9.78
2023-04-16T07:48:03.382Z,9.81
2023-04-16T07:50:30.606Z,10.05
2023-04-16T07:52:57.819Z,10.35
2023-04-16T07:55:24.971Z,10.28
2023-04-16T07:57:52.262Z,10.56
2023-04-16T08:00:19.459Z,10.61
2023-04-16T08:02:46.913Z,10.77
2023-04-16T08:05:15.660Z,10.64
2023-04-16T08:07:42.873Z,10.20
2023-04-16T08:10:10.313Z,10.15
2023-04-16T08:12:37.542Z,10.48
2023-04-16T08:15:05.541Z,10.75
2023-04-16T08:17:32.894Z,10.51
2023-04-16T08:20:00.104Z,10.51
2023-04-16T08:22:28.723Z,10.94
2023-04-16T08:24:55.990Z,10.92
2023-04-16T08:27:23.304Z,10.51
2023-04-16T08:29:50.454Z,10.98
2023-04-16T08:32:17.721Z,10.71
2023-04-16T08:34:44.934Z,10.89
2023-04-16T08:37:12.086Z,11.26
2023-04-16T08:39:40.662Z,11.25
2023-04-16T08:42:09.462Z,11.14
2023-04-16T08:44:38.124Z,11.18
2023-04-16T08:47:05.639Z,10.91
2023-04-16T08:49:32.889Z,10.54
2023-04-16T08:52:00.081Z,10.78
2023-04-16T08:54:39.125Z,10.78
2023-04-16T08:57:07.915Z,10.85
2023-04-16T08:59:34.983Z,10.20
2023-04-16T09:02:02.464Z,10.53
2023-04-16T09:04:30.001Z,10.81
2023-04-16T09:06:57.281Z,10.78
2023-04-16T09:09:24.478Z,10.71
2023-04-16T09:11:51.960Z,10.76
2023-04-16T09:14:20.662Z,10.67
2023-04-16T09:16:47.907Z,10.53
2023-04-16T09:19:15.371Z,10.62
2023-04-16T09:21:42.681Z,10.73
2023-04-16T09:24:09.922Z,10.75
2023-04-16T09:26:37.133Z,10.81
2023-04-16T09:29:04.371Z,10.68
2023-04-16T09:31:33.089Z,10.78
2023-04-16T09:34:03.619Z,11.02
2023-04-16T09:36:30.814Z,10.39
2023-04-16T09:38:58.046Z,10.54
2023-04-16T09:41:25.923Z,10.68
2023-04-16T09:43:56.681Z,10.74
2023-04-16T09:46:24.581Z,10.62
2023-04-16T09:48:53.327Z,10.70
2023-04-16T09:51:20.587Z,10.89
2023-04-16T09:53:47.782Z,10.89
2023-04-16T09:56:14.986Z,10.96
2023-04-16T09:58:42.173Z,10.76
2023-04-16T10:01:10.802Z,10.53
2023-04-16T10:03:39.173Z,10.96
2023-04-16T10:06:14.847Z,10.91
2023-04-16T10:08:43.782Z,10.62
2023-04-16T10:11:11.266Z,10.78
2023-04-16T10:13:38.456Z,10.61
2023-04-16T10:16:06.485Z,10.50
2023-04-16T10:18:33.627Z,10.74
2023-04-16T10:21:00.897Z,10.78
2023-04-16T10:23:29.529Z,11.10
2023-04-16T10:25:57.774Z,11.12
2023-04-16T10:28:25.177Z,11.11
2023-04-16T10:30:52.702Z,11.05
2023-04-16T10:33:20.973Z,10.89
2023-04-16T10:35:54.981Z,10.78
2023-04-16T10:38:33.442Z,10.84
2023-04-16T10:41:00.766Z,10.86
2023-04-16T10:43:28.696Z,10.80
2023-04-16T10:45:55.935Z,10.81
2023-04-16T10:48:24.462Z,10.75
2023-04-16T10:50:55.220Z,10.75
2023-04-16T10:53:23.788Z,10.78
2023-04-16T10:55:59.283Z,10.67
2023-04-16T10:58:29.662Z,10.72
2023-04-16T11:00:59.802Z,10.52
2023-04-16T11:03:30.241Z,10.80
2023-04-16T11:06:11.408Z,11.03
2023-04-16T11:08:51.221Z,11.14
2023-04-16T11:11:23.121Z,11.36
2023-04-16T11:13:50.377Z,11.49
2023-04-16T11:16:17.637Z,11.49
2023-04-16T11:18:51.392Z,11.30
2023-04-16T11:21:19.048Z,11.74
2023-04-16T11:23:47.526Z,11.54
2023-04-16T11:26:26.447Z,11.71
2023-04-16T11:28:54.057Z,11.74
2023-04-16T11:31:21.493Z,11.91
2023-04-16T11:33:48.684Z,11.80
2023-04-16T11:36:15.903Z,11.65
2023-04-16T11:38:43.076Z,11.13
2023-04-16T11:41:10.335Z,11.47
2023-04-16T11:43:38.957Z,10.95
2023-04-16T11:46:16.716Z,10.97
2023-04-16T11:48:52.093Z,10.66
2023-04-16T11:51:19.442Z,11.00
2023-04-16T11:53:47.789Z,10.84
2023-04-16T11:56:15.092Z,11.15
2023-04-16T11:58:43.791Z,11.21
2023-04-16T12:01:11.103Z,11.95
2023-04-16T12:03:39.963Z,11.95
2023-04-16T12:06:10.597Z,11.98
2023-04-16T12:08:37.769Z,11.86
2023-04-16T12:11:06.119Z,11.83
2023-04-16T12:13:33.305Z,11.66
2023-04-16T12:16:02.079Z,11.72
2023-04-16T12:18:29.309Z,11.59
2023-04-16T12:20:56.551Z,11.94
2023-04-16T12:23:24.798Z,12.07
2023-04-16T12:25:52.132Z,12.07
2023-04-16T12:28:28.171Z,11.81
2023-04-16T12:30:55.471Z,12.06
2023-04-16T12:33:24.163Z,12.12
2023-04-16T12:35:51.419Z,12.25
2023-04-16T12:38:18.744Z,11.89
2023-04-16T12:40:45.936Z,11.71
2023-04-16T12:43:13.295Z,11.74
2023-04-16T12:45:40.598Z,11.52
2023-04-16T12:48:07.961Z,11.54
2023-04-16T12:50:36.495Z,11.40
2023-04-16T12:53:03.766Z,11.81
2023-04-16T12:55:30.900Z,11.84
2023-04-16T12:57:58.171Z,12.15
2023-04-16T13:00:25.503Z,11.94
2023-04-16T13:02:52.903Z,11.85
2023-04-16T13:05:20.188Z,12.19
2023-04-16T13:07:48.846Z,11.86
2023-04-16T13:10:16.096Z,11.76
2023-04-16T13:12:43.395Z,11.10
2023-04-16T13:15:11.258Z,11.85
2023-04-16T13:17:38.585Z,12.00
2023-04-16T13:20:06.707Z,12.12
2023-04-16T13:22:33.999Z,12.34
2023-04-16T13:25:02.643Z,12.20
2023-04-16T13:27:29.791Z,12.56
2023-04-16T13:29:56.989Z,12.76
2023-04-16T13:32:24.257Z,12.76
2023-04-16T13:34:51.506Z,12.37
2023-04-16T13:37:18.809Z,12.48
2023-04-16T13:39:46.053Z,12.26
2023-04-16T13:42:15.902Z,12.95
2023-04-16T13:44:43.097Z,12.68
2023-04-16T13:47:10.431Z,12.43
2023-04-16T13:49:37.673Z,12.56
2023-04-16T13:52:05.118Z,12.72
2023-04-16T13:54:32.534Z,12.41
2023-04-16T13:56:59.688Z,12.53
2023-04-16T13:59:28.390Z,12.96
2023-04-16T14:01:55.738Z,12.96
2023-04-16T14:04:23.051Z,12.66
2023-04-16T14:06:50.357Z,12.65
2023-04-16T14:09:17.553Z,12.65
2023-04-16T14:11:44.794Z,12.64
2023-04-16T14:14:12.050Z,12.50
2023-04-16T17:49:48.759Z,10.88
2023-04-16T17:52:16.353Z,10.90
2023-04-16T17:54:43.483Z,10.69
2023-04-16T17:57:10.747Z,10.81
2023-04-16T17:59:37.909Z,11.00
2023-04-16T18:02:05.186Z,10.97
2023-04-16T18:04:32.660Z,10.78
2023-04-16T18:07:01.273Z,10.61
2023-04-16T18:09:28.417Z,10.70
2023-04-16T18:11:55.620Z,10.00
2023-04-16T18:14:22.829Z,9.84
2023-04-16T18:16:49.981Z,10.09
2023-04-16T18:19:17.185Z,10.47
2023-04-16T18:21:44.468Z,10.10
2023-04-16T18:24:13.209Z,10.32
2023-04-16T18:26:41.286Z,10.69
2023-04-16T18:29:09.192Z,10.77
2023-04-16T18:31:36.604Z,10.69
2023-04-16T18:34:03.840Z,10.99
2023-04-16T18:36:31.035Z,9.89
2023-04-16T18:39:02.205Z,10.22
2023-04-16T18:41:31.413Z,9.76
2023-04-16T18:43:58.676Z,9.80
2023-04-16T18:46:25.930Z,9.49
2023-04-16T18:48:53.208Z,9.77
2023-04-16T18:51:20.378Z,9.57
2023-04-16T18:53:47.433Z,10.11
2023-04-16T18:56:14.684Z,10.33
2023-04-16T18:58:43.273Z,10.40
2023-04-16T19:01:10.535Z,10.42
2023-04-16T19:03:38.064Z,9.60
2023-04-16T19:06:05.501Z,9.62
2023-04-16T19:08:32.795Z,9.50
2023-04-16T19:10:59.904Z,9.86
2023-04-16T19:13:27.100Z,9.53
2023-04-16T19:15:58.659Z,9.74
2023-04-16T19:18:25.873Z,9.84
2023-04-16T19:20:58.977Z,10.19
2023-04-16T19:23:26.288Z,9.67
2023-04-16T19:25:53.490Z,9.45
2023-04-16T19:28:20.687Z,9.57
2023-04-16T19:30:50.089Z,9.53
2023-04-16T19:33:18.752Z,9.38
2023-04-16T19:35:45.918Z,9.40
2023-04-16T19:38:13.067Z,9.57
2023-04-16T19:40:40.213Z,9.20
2023-04-16T19:43:07.375Z,9.64
2023-04-16T19:45:34.508Z,9.43
2023-04-16T19:48:01.744Z,9.18
2023-04-16T19:50:30.246Z,9.46
2023-04-16T19:52:57.426Z,9.06
2023-04-16T19:55:24.692Z,9.02
2023-04-16T19:57:51.783Z,8.81
2023-04-16T20:00:19.413Z,8.79
2023-04-16T20:02:46.792Z,8.83
2023-04-16T20:05:14.234Z,8.61
2023-04-16T20:07:42.823Z,8.67
2023-04-16T20:10:10.768Z,9.00
2023-04-16T20:12:38.016Z,8.96
2023-04-16T20:15:06.301Z,9.25
2023-04-16T20:17:33.537Z,9.19
2023-04-16T20:20:00.700Z,8.89
2023-04-16T20:22:27.890Z,8.89
2023-04-16T20:24:56.487Z,8.87
2023-04-16T20:27:23.729Z,8.81
2023-04-16T20:29:50.817Z,8.83
2023-04-16T20:32:18.026Z,8.69
2023-04-16T20:34:45.088Z,8.70
2023-04-16T20:37:12.365Z,8.97
2023-04-16T20:39:39.619Z,8.74
2023-04-16T20:42:08.352Z,8.64
2023-04-16T20:44:35.720Z,8.63
2023-04-16T20:47:02.902Z,8.65
2023-04-16T20:49:30.071Z,8.57
2023-04-16T20:51:57.405Z,8.51
2023-04-16T20:54:24.577Z,8.51
2023-04-16T20:56:51.889Z,8.44
2023-04-16T20:59:20.563Z,8.52
